Flight Track Log - Related Links

Times and Time Zones

All times are in EDT time to prevent confusion due to time zone crossing. See the FLG3780 flight status page for this flight to view local times or setup timezone preferences in your user account.

Time Position Orientation Groundspeed Altitude Reporting Facility
EDT Latitude Longitude Course Direction KTS MPH feet Rate Location/Type
Tue 02:17:19 PM 42.2314 -83.3342 94° East 147 169 1,300  Level Cleveland Center
Tue 02:18:08 PM 42.2611 -83.3075 34° Northeast 183 211 3,000 2,018 Climbing Cleveland Center
Tue 02:19:09 PM 42.3125 -83.2564 36° Northeast 256 295 5,000 2,293 Climbing Cleveland Center
Tue 02:20:00 PM 42.3183 -82.6978 78° East  Level FlightAware Approximate
Tue 02:20:11 PM 42.3539 -83.1739 56° Northeast 285 328 7,700  Level Cleveland Center
Tue 02:21:00 PM 42.3420 -82.5315 77° East  Level FlightAware Approximate
Tue 02:21:12 PM 42.3500 -83.0639 93° East 300 345 10,000  Level Cleveland Center
Tue 02:22:00 PM 42.3623 -82.3701 94° East  Level FlightAware Approximate
Tue 02:22:35 PM 42.3450 -82.9036 92° East 351 404 10,000  Level Cleveland Center
Tue 02:23:35 PM 42.3392 -82.7800 94° East 345 397 10,000 900 Level Cleveland Center
Tue 02:24:35 PM 42.3375 -82.6506 91° East 345 397 11,800 1,900 Climbing Cleveland Center
Tue 02:25:35 PM 42.3564 -82.5219 79° East 345 397 13,800 1,700 Climbing Cleveland Center
Tue 02:26:35 PM 42.3647 -82.3844 85° East 357 411 15,200 1,500 Climbing Cleveland Center
Tue 02:27:35 PM 42.3586 -82.2411 93° East 363 418 16,800 1,500 Climbing Cleveland Center
Tue 02:28:35 PM 42.3544 -82.0975 92° East 374 430 18,200 1,300 Climbing Cleveland Center
Tue 02:29:35 PM 42.3478 -81.9542 94° East 379 436 19,400 1,250 Climbing Cleveland Center
Tue 02:30:35 PM 42.3411 -81.8022 93° East 396 456 20,700 1,100 Climbing Cleveland Center
Tue 02:31:35 PM 42.3342 -81.6561 94° East 396 456 21,600 800 Climbing Cleveland Center
Tue 02:32:35 PM 42.3253 -81.4847 94° East 405 466 22,300 650 Climbing Cleveland Center
Tue 02:33:35 PM 42.3181 -81.3217 93° East 418 481 22,900 650 Climbing Cleveland Center
Tue 02:34:35 PM 42.3086 -81.1531 94° East 433 498 23,600 750 Climbing Cleveland Center
Tue 02:35:35 PM 42.2989 -80.9844 94° East 447 514 24,400 750 Climbing Cleveland Center
Tue 02:36:35 PM 42.2911 -80.8161 94° East 447 514 25,100 700 Climbing Cleveland Center
Tue 02:37:35 PM 42.2831 -80.6478 94° East 447 514 25,800 650 Climbing Cleveland Center
Tue 02:38:35 PM 42.2725 -80.4767 95° East 452 520 26,400 550 Climbing Cleveland Center
Tue 02:39:35 PM 42.2619 -80.3028 95° East 463 533 26,900 500 Climbing Cleveland Center
Tue 02:40:35 PM 42.2531 -80.1456 94° East 463 533 27,400 500 Climbing Cleveland Center
Tue 02:41:35 PM 42.2439 -79.9689 94° East 463 533 27,900 500 Climbing Cleveland Center
Tue 02:42:35 PM 42.2325 -79.7925 95° East 463 533 28,400 500 Climbing Cleveland Center
Tue 02:43:35 PM 42.2208 -79.6214 95° East 463 533 28,900 300 Climbing Cleveland Center
Tue 02:44:35 PM 42.2294 -79.4364 86° East 463 533 29,000 50 Climbing Cleveland Center
Tue 02:45:35 PM 42.2483 -79.2536 82° East 480 552 29,000  Level Cleveland Center
Tue 02:46:35 PM 42.2708 -79.0594 81° East 494 568 29,000  Level Cleveland Center
Tue 02:47:35 PM 42.2953 -78.8569 81° East 506 582 29,000  Level Cleveland Center
Tue 02:48:35 PM 42.3172 -78.6625 81° East 511 588 29,000  Level Cleveland Center
Tue 02:49:35 PM 42.3367 -78.4681 82° East 511 588 29,000  Level Cleveland Center
Tue 02:50:35 PM 42.3581 -78.2764 81° East 516 594 29,000  Level Cleveland Center
Tue 02:51:35 PM 42.3789 -78.0844 82° East 516 594 29,000  Level Cleveland Center
Tue 02:52:35 PM 42.3997 -77.8894 82° East 521 600 29,000  Level Cleveland Center
Tue 02:53:35 PM 42.4178 -77.6975 83° East 521 600 29,000  Level Cleveland Center
Tue 02:55:19 PM 42.4461 -77.4044 82° East 508 585 29,000  Level Boston Center
Tue 02:56:19 PM 42.4706 -77.1753 82° East 508 585 29,000  Level Boston Center
Tue 02:57:19 PM 42.4889 -76.9822 83° East 508 585 29,000  Level Boston Center
Tue 02:58:19 PM 42.5031 -76.8283 83° East 513 590 29,000  Level Boston Center
Tue 02:59:19 PM 42.5244 -76.5961 83° East 519 597 29,000  Level Boston Center
Tue 03:00:19 PM 42.5417 -76.4028 83° East 519 597 29,000  Level Boston Center
Tue 03:01:19 PM 42.5581 -76.2317 83° East 519 597 29,000  Level Boston Center
Tue 03:02:19 PM 42.5747 -76.0353 83° East 513 590 29,000  Level Boston Center
Tue 03:03:19 PM 42.5933 -75.8389 83° East 519 597 29,000  Level Boston Center
Tue 03:04:31 PM 42.6075 -75.6422 84° East 514 592 29,000  Level Boston Center
Tue 03:05:31 PM 42.6283 -75.4089 83° East 514 592 29,000  Level Boston Center
Tue 03:06:55 PM 42.6475 -75.1500 84° East 521 600 29,000  Level Boston Center
Tue 03:07:55 PM 42.6672 -74.9164 83° East 521 600 29,000  Level Boston Center
Tue 03:08:55 PM 42.6819 -74.7194 84° East 521 600 29,000  Level Boston Center
Tue 03:09:55 PM 42.6961 -74.5192 84° East 521 600 29,000 -400 Level Boston Center
Tue 03:10:55 PM 42.7100 -74.3192 85° East 521 600 28,200 -1,000 Descending Boston Center
Tue 03:11:55 PM 42.7256 -74.1275 84° East 516 594 27,000 -600 Descending Boston Center
Tue 03:12:55 PM 42.7344 -73.9439 86° East 501 577 27,000  Level Boston Center
Tue 03:13:55 PM 42.7467 -73.7944 84° East 495 570 27,000  Level Boston Center
Tue 03:14:55 PM 42.7553 -73.5853 87° East 495 570 27,000 -800 Level Boston Center
Tue 03:15:55 PM 42.7631 -73.3958 87° East 501 577 25,400 -1,500 Descending Boston Center
Tue 03:16:55 PM 42.7708 -73.2122 87° East 495 570 24,000 -1,750 Descending Boston Center
Tue 03:17:55 PM 42.7742 -73.0169 89° East 483 556 21,900 -2,550 Descending Boston Center
Tue 03:18:55 PM 42.7789 -72.8503 88° East 464 534 18,900 -2,400 Descending Boston Center
Tue 03:19:55 PM 42.7836 -72.6947 88° East 426 490 17,100 -1,800 Descending Boston Center
Tue 03:20:55 PM 42.7881 -72.5561 87° East 398 458 15,300 -1,750 Descending Boston Center
Tue 03:21:55 PM 42.7922 -72.4231 88° East 366 421 13,600 -1,550 Descending Boston Center
Tue 03:22:55 PM 42.7964 -72.2958 87° East 346 398 12,200 -1,318 Descending Boston Center
Tue 03:24:07 PM 42.8128 -72.1883 78° East 328 377 10,700 -1,333 Descending Boston Center
Tue 03:25:19 PM 42.8353 -72.0325 79° East 318 366 9,000 -1,545 Descending Boston Center
Tue 03:26:19 PM 42.8575 -71.8964 77° East 313 360 7,300 -1,591 Descending Boston Center
Tue 03:27:31 PM 42.8569 -71.7944 90° East 303 349 5,500 -1,909 Descending Boston Center
Tue 03:28:31 PM 42.8478 -71.6614 95° East 280 322 3,100 -2,400 Descending Boston Center

Login

Don't have an account? Register now (free) for customized features, flight alerts, and more!